Time;durP1;ratioP1;P1;durP2;ratioP2;P2;SDS_P1;SDS_P2;PMS_P1;PMS_P2;Temp;Humidity;BMP_temperature;BMP_pressure;BME280_temperature;BME280_humidity;BME280_pressure;Samples;Min_cycle;Max_cycle;Signal;HPM_P1;HPM_P2
2021/08/31 00:00:01;;;;;;;0.40;0.20;;;13.90;99.90;;;;;;5030445;28;20910;-74
2021/08/31 00:02:27;;;;;;;0.40;0.30;;;13.90;99.90;;;;;;5028730;28;21031;-74
2021/08/31 00:04:52;;;;;;;0.40;0.20;;;13.80;99.90;;;;;;5029416;28;20488;-75
2021/08/31 00:07:18;;;;;;;0.40;0.20;;;13.80;99.90;;;;;;5010613;28;20395;-75
2021/08/31 00:09:44;;;;;;;0.40;0.20;;;13.70;99.90;;;;;;5028650;28;20429;-75
2021/08/31 00:12:09;;;;;;;0.40;0.30;;;13.70;99.90;;;;;;5029170;28;20383;-75
2021/08/31 00:14:36;;;;;;;0.40;0.20;;;13.70;99.90;;;;;;5029644;28;20397;-75
2021/08/31 00:17:03;;;;;;;1.10;0.70;;;13.70;99.90;;;;;;5029958;28;20454;-75
2021/08/31 00:19:28;;;;;;;0.40;0.20;;;13.70;99.90;;;;;;5029483;28;20375;-74
2021/08/31 00:21:54;;;;;;;0.40;0.20;;;13.60;99.90;;;;;;5030131;28;20453;-75
2021/08/31 00:24:22;;;;;;;0.40;0.20;;;13.60;99.90;;;;;;5030316;28;20879;-75
2021/08/31 00:26:47;;;;;;;0.40;0.30;;;13.50;99.90;;;;;;5030748;28;20748;-75
2021/08/31 00:29:13;;;;;;;0.40;0.20;;;13.50;99.90;;;;;;5029794;28;20383;-74
2021/08/31 00:31:39;;;;;;;0.40;0.20;;;13.40;99.90;;;;;;5030180;28;20949;-74
2021/08/31 00:34:05;;;;;;;0.40;0.30;;;13.40;99.90;;;;;;5031006;28;20375;-75
2021/08/31 00:36:30;;;;;;;0.40;0.30;;;13.40;99.90;;;;;;5029994;28;20384;-75
2021/08/31 00:38:57;;;;;;;0.40;0.30;;;13.40;99.90;;;;;;5030415;28;20391;-75
2021/08/31 00:41:23;;;;;;;0.40;0.30;;;13.40;99.90;;;;;;5029873;28;20773;-75
2021/08/31 00:43:50;;;;;;;0.40;0.20;;;13.40;99.90;;;;;;5030553;28;20382;-75
2021/08/31 00:46:16;;;;;;;0.40;0.20;;;13.30;99.90;;;;;;5029470;28;20390;-75
2021/08/31 00:48:43;;;;;;;0.40;0.30;;;13.30;99.90;;;;;;5030506;28;20379;-75
2021/08/31 00:51:10;;;;;;;0.50;0.40;;;13.30;99.90;;;;;;5029541;28;20459;-74
2021/08/31 00:53:37;;;;;;;0.40;0.20;;;13.20;99.90;;;;;;5030336;28;20395;-74
2021/08/31 00:56:04;;;;;;;0.40;0.20;;;13.30;99.90;;;;;;5030178;28;20848;-74
2021/08/31 00:58:31;;;;;;;0.40;0.30;;;13.30;99.90;;;;;;5029722;28;20484;-74
2021/08/31 01:00:57;;;;;;;0.40;0.20;;;13.40;99.90;;;;;;5030093;28;20391;-74
2021/08/31 01:03:23;;;;;;;0.40;0.30;;;13.40;99.90;;;;;;5029446;28;20690;-75
2021/08/31 01:05:49;;;;;;;0.60;0.60;;;13.30;99.90;;;;;;5030330;28;20380;-75
2021/08/31 01:08:14;;;;;;;0.40;0.20;;;13.20;99.90;;;;;;5029609;28;20814;-75
2021/08/31 01:10:40;;;;;;;0.40;0.30;;;13.20;99.90;;;;;;5028619;28;20721;-75
2021/08/31 01:13:06;;;;;;;0.40;0.20;;;13.20;99.90;;;;;;5030104;28;20402;-74
2021/08/31 01:15:32;;;;;;;0.40;0.30;;;13.20;99.90;;;;;;5031114;28;20391;-75
2021/08/31 01:18:12;;;;;;;0.40;0.20;;;13.20;99.90;;;;;;5033426;28;20407;-75
2021/08/31 01:20:38;;;;;;;0.40;0.20;;;13.10;99.90;;;;;;5033769;28;20423;-75
2021/08/31 01:23:03;;;;;;;0.40;0.20;;;13.20;99.90;;;;;;5033931;28;20819;-76
2021/08/31 01:25:29;;;;;;;0.40;0.20;;;13.20;99.90;;;;;;5033251;28;20391;-76
2021/08/31 01:27:54;;;;;;;0.40;0.30;;;13.20;99.90;;;;;;5033432;28;20414;-75
2021/08/31 01:30:20;;;;;;;0.40;0.20;;;13.20;99.90;;;;;;5033049;28;20391;-75
2021/08/31 01:32:46;;;;;;;0.40;0.20;;;13.20;99.90;;;;;;5033347;28;20383;-74
2021/08/31 01:35:12;;;;;;;0.40;0.20;;;13.30;99.90;;;;;;5032933;28;20481;-74
2021/08/31 01:37:38;;;;;;;0.40;0.30;;;13.40;99.90;;;;;;5033125;28;20410;-74
2021/08/31 01:40:04;;;;;;;0.40;0.20;;;13.40;99.90;;;;;;5033498;28;20383;-75
2021/08/31 01:42:29;;;;;;;0.40;0.20;;;13.50;99.90;;;;;;5032809;28;20375;-75
2021/08/31 01:44:55;;;;;;;0.40;0.20;;;13.40;99.90;;;;;;5033972;28;20406;-75
2021/08/31 01:47:20;;;;;;;0.40;0.20;;;13.30;99.90;;;;;;5032287;28;20384;-73
2021/08/31 01:49:46;;;;;;;0.40;0.20;;;13.30;99.90;;;;;;5015300;28;20445;-73
2021/08/31 01:52:12;;;;;;;0.40;0.30;;;13.30;99.90;;;;;;5032511;28;20493;-74
2021/08/31 01:54:37;;;;;;;0.40;0.20;;;13.30;99.90;;;;;;5033227;28;20393;-74
2021/08/31 01:57:03;;;;;;;0.40;0.20;;;13.30;99.90;;;;;;5032730;28;20602;-74
2021/08/31 01:59:29;;;;;;;0.40;0.20;;;13.30;99.90;;;;;;5032519;28;20418;-74
2021/08/31 02:01:54;;;;;;;0.40;0.20;;;13.30;99.90;;;;;;5032990;28;20397;-74
2021/08/31 02:04:20;;;;;;;0.40;0.20;;;13.40;99.90;;;;;;5032760;28;20727;-74
2021/08/31 02:06:46;;;;;;;0.40;0.30;;;13.30;99.90;;;;;;5032828;28;20383;-75
2021/08/31 02:09:11;;;;;;;0.40;0.30;;;13.30;99.90;;;;;;5032911;28;20399;-75
2021/08/31 02:11:37;;;;;;;0.40;0.20;;;13.20;99.90;;;;;;5031989;28;20387;-75
2021/08/31 02:14:03;;;;;;;0.40;0.20;;;13.30;99.90;;;;;;5032879;28;20415;-75
2021/08/31 02:16:28;;;;;;;0.40;0.30;;;13.30;99.90;;;;;;5032170;28;20389;-75
2021/08/31 02:18:54;;;;;;;0.40;0.20;;;13.40;99.90;;;;;;5032438;28;20434;-75
2021/08/31 02:21:20;;;;;;;0.40;0.20;;;13.30;99.90;;;;;;5032348;28;20886;-75
2021/08/31 02:23:46;;;;;;;0.40;0.30;;;13.30;99.90;;;;;;5032671;28;20430;-75
2021/08/31 02:26:12;;;;;;;0.40;0.20;;;13.40;99.90;;;;;;5031988;28;20423;-75
2021/08/31 02:28:37;;;;;;;0.40;0.20;;;13.40;99.90;;;;;;5031796;28;20487;-75
2021/08/31 02:31:03;;;;;;;0.40;0.20;;;13.50;99.90;;;;;;5032357;28;20434;-75
2021/08/31 02:33:29;;;;;;;0.40;0.20;;;13.50;99.90;;;;;;5031911;28;20843;-75
2021/08/31 02:35:54;;;;;;;0.40;0.30;;;13.40;99.90;;;;;;5032556;28;20379;-75
2021/08/31 02:38:20;;;;;;;0.40;0.20;;;13.40;99.90;;;;;;5031801;28;20871;-75
2021/08/31 02:40:46;;;;;;;0.40;0.20;;;13.50;99.90;;;;;;5032607;28;20860;-75
2021/08/31 02:43:11;;;;;;;0.40;0.20;;;13.50;99.90;;;;;;5032244;28;20465;-75
2021/08/31 02:45:37;;;;;;;0.40;0.20;;;13.50;99.90;;;;;;5031347;28;20521;-75
2021/08/31 02:48:03;;;;;;;0.40;0.20;;;13.60;99.90;;;;;;5032125;28;20486;-75
2021/08/31 02:50:28;;;;;;;0.40;0.20;;;13.60;99.90;;;;;;5031598;28;20887;-75
2021/08/31 02:52:54;;;;;;;0.40;0.20;;;13.60;99.90;;;;;;5032369;28;20391;-75
2021/08/31 02:55:19;;;;;;;0.40;0.30;;;13.60;99.90;;;;;;5031568;28;20911;-75
2021/08/31 02:57:45;;;;;;;0.40;0.20;;;13.60;99.90;;;;;;5031711;28;20876;-75
2021/08/31 03:00:18;;;;;;;0.40;0.20;;;13.60;99.90;;;;;;5032039;28;20383;-75
2021/08/31 03:02:44;;;;;;;0.40;0.20;;;13.50;99.90;;;;;;5031973;28;20427;-75
2021/08/31 03:05:10;;;;;;;0.40;0.20;;;13.50;99.90;;;;;;5031695;28;20883;-75
2021/08/31 03:07:35;;;;;;;0.40;0.20;;;13.60;99.90;;;;;;5031129;28;20390;-75
2021/08/31 03:10:01;;;;;;;0.40;0.20;;;13.50;99.90;;;;;;5031485;28;20383;-75
2021/08/31 03:12:26;;;;;;;0.40;0.20;;;13.50;99.90;;;;;;5031171;28;20383;-75
2021/08/31 03:14:52;;;;;;;0.40;0.20;;;13.50;99.90;;;;;;5031695;28;20859;-75
2021/08/31 03:17:18;;;;;;;0.40;0.30;;;13.50;99.90;;;;;;5031026;28;20439;-75
2021/08/31 03:19:43;;;;;;;0.40;0.30;;;13.50;99.90;;;;;;5031553;28;20387;-75
2021/08/31 03:22:10;;;;;;;0.40;0.20;;;13.50;99.90;;;;;;5031197;28;20895;-75
2021/08/31 03:24:37;;;;;;;0.40;0.20;;;13.50;99.90;;;;;;5030596;28;20395;-75
2021/08/31 03:27:04;;;;;;;0.40;0.22;;;13.50;99.90;;;;;;5031631;28;20788;-75
2021/08/31 03:29:30;;;;;;;0.40;0.20;;;13.60;99.90;;;;;;5030518;28;20421;-75
2021/08/31 03:31:56;;;;;;;0.40;0.30;;;13.50;99.90;;;;;;5031546;28;20379;-75
2021/08/31 03:34:22;;;;;;;0.40;0.20;;;13.60;99.90;;;;;;5030761;28;20398;-75
2021/08/31 03:36:47;;;;;;;0.40;0.20;;;13.70;99.90;;;;;;5031110;28;20441;-75
2021/08/31 03:39:13;;;;;;;0.40;0.20;;;13.70;99.90;;;;;;5031016;28;20394;-75
2021/08/31 03:41:39;;;;;;;0.40;0.20;;;13.60;99.90;;;;;;5013091;28;20386;-75
2021/08/31 03:44:05;;;;;;;0.50;0.50;;;13.70;99.90;;;;;;5030991;28;20387;-75
2021/08/31 03:46:31;;;;;;;0.40;0.20;;;13.70;99.90;;;;;;5030491;28;20421;-75
2021/08/31 03:48:57;;;;;;;0.40;0.20;;;13.60;99.90;;;;;;5029530;28;20393;-75
2021/08/31 03:51:22;;;;;;;0.40;0.30;;;13.70;99.90;;;;;;5030505;28;20383;-75
2021/08/31 03:53:48;;;;;;;0.40;0.20;;;13.70;99.90;;;;;;5030797;28;20884;-75
2021/08/31 03:56:14;;;;;;;0.40;0.30;;;13.70;99.90;;;;;;5030902;28;20395;-75
2021/08/31 03:58:39;;;;;;;0.40;0.30;;;13.70;99.90;;;;;;5030310;28;20529;-75
2021/08/31 04:01:05;;;;;;;0.40;0.20;;;13.70;99.90;;;;;;5031160;28;20394;-75
2021/08/31 04:03:31;;;;;;;0.40;0.20;;;13.60;99.90;;;;;;5030269;28;20383;-75
2021/08/31 04:05:56;;;;;;;0.40;0.20;;;13.60;99.90;;;;;;5031085;28;20379;-75
2021/08/31 04:08:22;;;;;;;0.40;0.20;;;13.60;99.90;;;;;;5030477;28;20391;-75
2021/08/31 04:10:48;;;;;;;0.40;0.20;;;13.50;99.90;;;;;;5030896;28;20383;-75
2021/08/31 04:13:17;;;;;;;0.40;0.30;;;13.50;99.90;;;;;;5030860;28;20383;-76
2021/08/31 04:15:43;;;;;;;0.40;0.20;;;13.40;99.90;;;;;;5030273;28;20435;-73
2021/08/31 04:18:09;;;;;;;0.40;0.30;;;13.50;99.90;;;;;;5030952;28;20425;-74
2021/08/31 04:20:35;;;;;;;0.40;0.20;;;13.50;99.90;;;;;;5029104;28;20863;-73
2021/08/31 04:23:00;;;;;;;0.40;0.30;;;13.60;99.90;;;;;;5031133;28;20489;-74
2021/08/31 04:25:26;;;;;;;0.40;0.30;;;13.70;99.90;;;;;;5030297;28;20375;-74
2021/08/31 04:27:52;;;;;;;0.40;0.30;;;13.50;99.90;;;;;;5030967;28;20383;-74
2021/08/31 04:30:17;;;;;;;0.40;0.20;;;13.50;99.90;;;;;;5030709;28;20425;-74
2021/08/31 04:32:44;;;;;;;0.40;0.20;;;13.50;99.90;;;;;;5030399;28;20804;-73
2021/08/31 04:35:09;;;;;;;0.60;0.50;;;13.60;99.90;;;;;;5014418;28;20909;-73
2021/08/31 04:37:35;;;;;;;0.40;0.30;;;13.50;99.90;;;;;;5022938;28;20442;-74
2021/08/31 04:40:01;;;;;;;0.60;0.60;;;13.50;99.90;;;;;;5021722;28;20912;-74
2021/08/31 04:42:27;;;;;;;0.40;0.20;;;13.60;99.90;;;;;;5016496;28;20410;-73
2021/08/31 04:44:52;;;;;;;0.40;0.30;;;13.50;99.90;;;;;;5025898;28;20405;-73
2021/08/31 04:47:21;;;;;;;0.40;0.20;;;13.60;99.90;;;;;;5027296;28;20974;-75
2021/08/31 04:49:47;;;;;;;0.40;0.20;;;13.70;99.90;;;;;;5028324;28;20445;-76
2021/08/31 04:52:13;;;;;;;0.40;0.20;;;13.60;99.90;;;;;;5031700;28;20387;-74
2021/08/31 04:54:39;;;;;;;0.40;0.30;;;13.60;99.90;;;;;;5031072;28;20448;-74
2021/08/31 04:57:05;;;;;;;0.40;0.20;;;13.50;99.90;;;;;;5031652;28;20487;-74
2021/08/31 04:59:30;;;;;;;0.40;0.20;;;13.50;99.90;;;;;;5029411;28;20461;-73
2021/08/31 05:01:56;;;;;;;0.40;0.30;;;13.50;99.90;;;;;;5030810;28;20402;-74
2021/08/31 05:04:28;;;;;;;0.40;0.30;;;13.40;99.90;;;;;;5031162;28;20395;-74
2021/08/31 05:06:53;;;;;;;0.40;0.20;;;13.30;99.90;;;;;;5031495;28;20398;-74
2021/08/31 05:09:19;;;;;;;0.40;0.20;;;13.40;99.90;;;;;;5030444;28;20387;-74
2021/08/31 05:11:45;;;;;;;0.40;0.30;;;13.50;99.90;;;;;;5030564;28;20442;-74
2021/08/31 05:14:10;;;;;;;1.10;0.50;;;13.50;99.90;;;;;;5031444;28;20399;-74
2021/08/31 05:16:36;;;;;;;0.40;0.20;;;13.50;99.90;;;;;;5030611;28;20398;-74
2021/08/31 05:19:03;;;;;;;0.40;0.20;;;13.40;99.90;;;;;;5031212;28;20768;-74
2021/08/31 05:21:30;;;;;;;0.40;0.20;;;13.40;99.90;;;;;;5028969;28;20391;-74
2021/08/31 05:23:56;;;;;;;0.40;0.30;;;13.40;99.90;;;;;;5030946;28;20756;-74
2021/08/31 05:26:22;;;;;;;0.40;0.30;;;13.50;99.90;;;;;;5030860;28;20395;-74
2021/08/31 05:28:47;;;;;;;0.40;0.20;;;13.50;99.90;;;;;;5030764;28;20398;-75
2021/08/31 05:31:13;;;;;;;0.40;0.20;;;13.40;99.90;;;;;;5030982;28;20867;-74
2021/08/31 05:33:39;;;;;;;0.40;0.20;;;13.40;99.90;;;;;;5030052;28;20383;-74
2021/08/31 05:36:04;;;;;;;0.40;0.30;;;13.40;99.90;;;;;;5031095;28;20390;-74
2021/08/31 05:38:30;;;;;;;0.40;0.20;;;13.50;99.90;;;;;;5036458;28;20524;-74
2021/08/31 05:40:55;;;;;;;0.40;0.30;;;13.40;99.90;;;;;;5030443;28;20395;-74
2021/08/31 05:43:21;;;;;;;0.40;0.20;;;13.60;99.90;;;;;;5031181;28;20379;-74
2021/08/31 05:45:47;;;;;;;0.40;0.20;;;13.60;99.90;;;;;;5028436;28;20407;-74
2021/08/31 05:48:12;;;;;;;0.40;0.30;;;13.70;99.90;;;;;;5031019;28;20398;-74
2021/08/31 05:50:38;;;;;;;0.40;0.20;;;13.70;99.90;;;;;;5025558;28;20799;-74
2021/08/31 05:53:04;;;;;;;0.40;0.20;;;13.80;99.90;;;;;;5030243;28;20433;-74
2021/08/31 05:55:29;;;;;;;0.40;0.30;;;13.90;99.90;;;;;;5029840;28;20466;-74
2021/08/31 05:57:55;;;;;;;0.40;0.30;;;13.90;99.90;;;;;;5018584;28;20997;-74
2021/08/31 06:00:20;;;;;;;0.40;0.30;;;14.00;99.90;;;;;;5029629;28;20462;-74
2021/08/31 06:02:46;;;;;;;0.40;0.20;;;14.10;99.90;;;;;;5029699;28;20717;-74
2021/08/31 06:05:12;;;;;;;0.40;0.20;;;14.10;99.90;;;;;;5030123;28;20744;-74
2021/08/31 06:07:42;;;;;;;0.40;0.30;;;14.10;99.90;;;;;;5029679;28;20391;-74
2021/08/31 06:10:08;;;;;;;0.40;0.30;;;14.10;99.90;;;;;;5026505;28;20454;-74
2021/08/31 06:12:34;;;;;;;0.40;0.30;;;14.20;99.90;;;;;;5028263;28;20387;-75
2021/08/31 06:15:00;;;;;;;0.40;0.20;;;14.30;99.90;;;;;;5029552;28;20518;-75
2021/08/31 06:17:27;;;;;;;0.40;0.20;;;14.20;99.90;;;;;;5028772;28;20415;-74
2021/08/31 06:19:53;;;;;;;0.40;0.30;;;14.20;99.90;;;;;;5026982;28;20395;-74
2021/08/31 06:22:19;;;;;;;0.40;0.20;;;14.30;99.90;;;;;;5027387;28;20395;-74
2021/08/31 06:24:46;;;;;;;0.40;0.20;;;14.30;99.90;;;;;;5019271;28;20398;-74
2021/08/31 06:27:12;;;;;;;0.40;0.20;;;14.40;99.90;;;;;;5023974;28;20395;-75
2021/08/31 06:29:38;;;;;;;0.40;0.20;;;14.40;99.90;;;;;;5028311;28;20391;-75
2021/08/31 06:32:04;;;;;;;0.40;0.20;;;14.40;99.90;;;;;;5028821;28;20406;-75
2021/08/31 06:34:30;;;;;;;0.40;0.20;;;14.40;99.90;;;;;;5031569;28;20411;-74
2021/08/31 06:36:56;;;;;;;0.40;0.20;;;14.40;99.90;;;;;;5030256;28;20561;-74
2021/08/31 06:39:22;;;;;;;0.40;0.22;;;14.40;99.90;;;;;;5030498;28;20792;-74
2021/08/31 06:41:47;;;;;;;0.40;0.30;;;14.50;99.90;;;;;;5031417;28;20379;-74
2021/08/31 06:44:13;;;;;;;0.40;0.30;;;14.60;99.90;;;;;;5031874;28;20473;-75
2021/08/31 06:46:39;;;;;;;0.40;0.20;;;14.60;99.90;;;;;;5031246;28;20423;-75
2021/08/31 06:49:05;;;;;;;0.40;0.30;;;14.70;99.90;;;;;;5031350;28;20418;-75
2021/08/31 06:51:30;;;;;;;0.40;0.20;;;14.60;99.90;;;;;;5030616;28;20457;-75
2021/08/31 06:53:56;;;;;;;0.40;0.20;;;14.60;99.90;;;;;;5009811;28;20865;-75
2021/08/31 06:56:22;;;;;;;0.40;0.20;;;14.60;99.90;;;;;;5021445;28;20498;-75
2021/08/31 06:58:48;;;;;;;0.40;0.20;;;14.70;99.90;;;;;;5030631;28;20407;-75
2021/08/31 07:01:14;;;;;;;0.40;0.20;;;14.80;99.90;;;;;;5031814;28;20379;-74
2021/08/31 07:03:40;;;;;;;0.40;0.20;;;14.70;99.90;;;;;;5031319;28;20930;-75
2021/08/31 07:06:05;;;;;;;0.40;0.20;;;14.70;99.90;;;;;;5031463;28;20719;-74
2021/08/31 07:08:31;;;;;;;0.40;0.20;;;14.60;99.90;;;;;;5031078;28;20390;-74
2021/08/31 07:10:57;;;;;;;0.40;0.30;;;14.70;99.90;;;;;;5030837;28;20394;-75
2021/08/31 07:13:24;;;;;;;0.40;0.30;;;14.70;99.90;;;;;;5031072;28;20426;-75
2021/08/31 07:15:50;;;;;;;0.40;0.20;;;14.80;99.90;;;;;;5030983;28;20379;-74
2021/08/31 07:18:15;;;;;;;0.40;0.30;;;14.70;99.90;;;;;;5013784;28;20756;-74
2021/08/31 07:20:41;;;;;;;0.90;0.50;;;14.90;99.90;;;;;;5012812;28;20407;-74
2021/08/31 07:23:07;;;;;;;0.40;0.30;;;15.00;99.90;;;;;;5030453;28;20402;-74
2021/08/31 07:25:33;;;;;;;0.40;0.30;;;15.00;99.90;;;;;;5029989;28;20383;-76
2021/08/31 07:27:59;;;;;;;0.40;0.20;;;15.10;99.90;;;;;;5030661;28;20415;-76
2021/08/31 07:30:24;;;;;;;0.40;0.20;;;15.20;99.90;;;;;;5030789;28;20488;-76
2021/08/31 07:32:50;;;;;;;0.40;0.20;;;15.20;99.90;;;;;;5030049;28;20390;-74
2021/08/31 07:35:16;;;;;;;0.40;0.30;;;15.20;99.90;;;;;;5030196;28;20379;-76
2021/08/31 07:37:42;;;;;;;0.40;0.20;;;15.20;99.90;;;;;;5030027;28;20415;-77
2021/08/31 07:40:08;;;;;;;0.40;0.20;;;15.20;99.90;;;;;;5030495;28;20388;-75
2021/08/31 07:42:34;;;;;;;0.40;0.30;;;15.20;99.90;;;;;;5029538;28;20890;-76
2021/08/31 07:45:04;;;;;;;0.40;0.30;;;15.30;99.90;;;;;;5012826;28;20392;-75
2021/08/31 07:47:31;;;;;;;0.40;0.20;;;15.50;99.90;;;;;;5029909;28;20831;-75
2021/08/31 07:49:58;;;;;;;0.40;0.20;;;15.50;99.90;;;;;;5025853;28;20740;-76
2021/08/31 07:52:23;;;;;;;0.40;0.20;;;15.50;99.90;;;;;;5020414;28;20445;-75
2021/08/31 07:54:49;;;;;;;0.40;0.30;;;15.60;99.90;;;;;;5029842;28;20415;-76
2021/08/31 07:57:15;;;;;;;0.40;0.20;;;15.50;99.90;;;;;;5030039;28;20506;-75
2021/08/31 07:59:40;;;;;;;0.40;0.20;;;15.50;99.90;;;;;;5029771;28;20387;-74
2021/08/31 08:02:06;;;;;;;0.40;0.20;;;15.40;99.90;;;;;;5030149;28;20423;-75
2021/08/31 08:04:32;;;;;;;0.40;0.20;;;15.40;99.90;;;;;;5029747;28;20911;-74
2021/08/31 08:06:57;;;;;;;0.40;0.20;;;15.50;99.90;;;;;;5030046;28;20468;-76
2021/08/31 08:09:23;;;;;;;0.40;0.30;;;15.60;99.90;;;;;;5029837;28;20386;-76
2021/08/31 08:11:49;;;;;;;0.40;0.20;;;15.60;99.90;;;;;;5029496;28;20407;-76
2021/08/31 08:14:15;;;;;;;0.40;0.40;;;15.50;99.90;;;;;;5029871;28;20832;-75
2021/08/31 08:16:40;;;;;;;0.40;0.30;;;15.60;99.90;;;;;;5029391;28;20725;-74
2021/08/31 08:19:06;;;;;;;0.40;0.30;;;15.60;99.90;;;;;;5030060;28;20429;-75
2021/08/31 08:21:32;;;;;;;0.40;0.20;;;15.50;99.90;;;;;;4965398;28;1825369;-75
2021/08/31 08:23:57;;;;;;;0.40;0.30;;;15.40;99.90;;;;;;5031186;28;20417;-73
2021/08/31 08:26:23;;;;;;;0.40;0.20;;;15.30;99.90;;;;;;5033993;28;20464;-74
2021/08/31 08:28:49;;;;;;;0.40;0.20;;;15.20;99.90;;;;;;5033570;28;20387;-74
2021/08/31 08:31:14;;;;;;;0.40;0.20;;;15.30;99.90;;;;;;5034349;28;20383;-75
2021/08/31 08:33:40;;;;;;;0.40;0.20;;;15.20;99.90;;;;;;5033942;28;20774;-75
2021/08/31 08:36:07;;;;;;;0.50;0.50;;;15.20;99.90;;;;;;5034337;28;20375;-75
2021/08/31 08:38:33;;;;;;;0.40;0.20;;;15.30;99.90;;;;;;5033803;28;20414;-75
2021/08/31 08:41:04;;;;;;;0.40;0.20;;;15.30;99.90;;;;;;5034505;28;20886;-74
2021/08/31 08:43:29;;;;;;;0.40;0.30;;;15.30;99.90;;;;;;5034407;28;20433;-75
2021/08/31 08:45:55;;;;;;;0.40;0.20;;;15.40;99.90;;;;;;5033934;28;20829;-74
2021/08/31 08:48:24;;;;;;;0.40;0.20;;;15.40;99.90;;;;;;5034303;28;20740;-74
2021/08/31 08:50:52;;;;;;;0.40;0.30;;;15.60;99.90;;;;;;5033834;28;20457;-75
2021/08/31 08:53:17;;;;;;;0.40;0.28;;;15.60;99.90;;;;;;5034138;28;20391;-75
2021/08/31 08:55:43;;;;;;;0.40;0.30;;;15.60;99.90;;;;;;5033672;28;20379;-76
2021/08/31 08:58:09;;;;;;;0.40;0.30;;;15.80;99.90;;;;;;5034286;28;20442;-75
2021/08/31 09:01:07;;;;;;;0.40;0.20;;;16.10;99.90;;;;;;5033638;28;20375;-75
2021/08/31 09:03:35;;;;;;;0.40;0.30;;;16.10;99.90;;;;;;5033165;28;20379;-76
2021/08/31 09:06:14;;;;;;;0.40;0.20;;;16.20;99.90;;;;;;5034379;28;20395;-74
2021/08/31 09:08:53;;;;;;;0.40;0.20;;;16.20;99.90;;;;;;5033212;28;20414;-74
2021/08/31 09:11:26;;;;;;;0.40;0.20;;;16.20;99.90;;;;;;5033445;28;20816;-72
2021/08/31 09:14:12;;;;;;;0.40;0.30;;;16.20;99.90;;;;;;5032973;28;20925;-74
2021/08/31 09:16:38;;;;;;;0.40;0.30;;;16.20;99.90;;;;;;5033063;28;20404;-72
2021/08/31 09:19:04;;;;;;;0.40;0.20;;;16.20;99.90;;;;;;5033837;28;20465;-72
2021/08/31 09:21:29;;;;;;;0.40;0.20;;;15.90;99.90;;;;;;5033317;28;20453;-72
2021/08/31 09:23:57;;;;;;;0.40;0.30;;;16.10;99.90;;;;;;5015450;28;20387;-72
2021/08/31 09:26:43;;;;;;;0.40;0.22;;;16.10;99.90;;;;;;5033820;28;20384;-72
2021/08/31 09:29:21;;;;;;;0.40;0.20;;;16.30;99.90;;;;;;5033680;28;20414;-71
2021/08/31 09:31:55;;;;;;;0.40;0.20;;;16.20;99.90;;;;;;5018213;28;20751;-72
2021/08/31 09:34:31;;;;;;;0.40;0.20;;;16.30;99.90;;;;;;5033358;28;20744;-72
2021/08/31 09:37:29;;;;;;;0.40;0.20;;;16.20;99.90;;;;;;5032131;28;20386;-71
2021/08/31 09:40:05;;;;;;;0.40;0.20;;;16.30;99.90;;;;;;5017906;28;20429;-72
2021/08/31 09:42:30;;;;;;;0.40;0.20;;;16.30;99.90;;;;;;5033031;28;20387;-71
2021/08/31 09:45:05;;;;;;;0.40;0.20;;;16.30;99.90;;;;;;5031970;28;20613;-72
2021/08/31 09:47:37;;;;;;;0.40;0.30;;;16.30;99.90;;;;;;5032804;28;20662;-72
2021/08/31 09:50:04;;;;;;;0.40;0.20;;;16.40;99.90;;;;;;5032658;28;20390;-70
2021/08/31 09:52:30;;;;;;;0.40;0.20;;;16.40;99.90;;;;;;5032816;28;20383;-71
2021/08/31 09:54:56;;;;;;;0.40;0.20;;;16.40;99.90;;;;;;5032145;28;20978;-72
2021/08/31 09:57:37;;;;;;;0.70;0.70;;;16.50;99.90;;;;;;5032216;28;20430;-71
2021/08/31 10:00:08;;;;;;;0.40;0.20;;;16.40;99.90;;;;;;5032555;28;20387;-73
2021/08/31 10:02:34;;;;;;;0.40;0.30;;;16.40;99.90;;;;;;5032611;28;20429;-74
2021/08/31 10:05:00;;;;;;;0.40;0.20;;;16.50;99.90;;;;;;5032257;28;20379;-74
2021/08/31 10:07:27;;;;;;;0.40;0.40;;;16.70;99.90;;;;;;5032379;28;20391;-74
2021/08/31 10:09:53;;;;;;;0.40;0.30;;;16.70;99.90;;;;;;5027284;28;20913;-74
2021/08/31 10:12:22;;;;;;;0.40;0.30;;;16.90;99.90;;;;;;5001466;28;20488;-74
2021/08/31 10:14:52;;;;;;;0.40;0.20;;;17.00;99.90;;;;;;5007682;28;20752;-71
2021/08/31 10:17:21;;;;;;;0.40;0.20;;;17.10;99.90;;;;;;5032219;28;20415;-72
2021/08/31 10:19:48;;;;;;;0.40;0.20;;;17.20;99.90;;;;;;5031380;28;20395;-72
2021/08/31 10:22:16;;;;;;;0.40;0.20;;;17.30;99.90;;;;;;5032182;28;20407;-72
2021/08/31 10:24:44;;;;;;;0.40;0.20;;;17.30;99.90;;;;;;5031673;28;20395;-72
2021/08/31 10:27:36;;;;;;;0.40;0.30;;;17.50;99.90;;;;;;5032235;28;20416;-74
2021/08/31 10:30:20;;;;;;;0.40;0.20;;;17.50;99.90;;;;;;5031624;28;20438;-72
2021/08/31 10:32:51;;;;;;;0.40;0.20;;;17.70;99.90;;;;;;5030094;28;20876;-73
2021/08/31 10:35:32;;;;;;;0.40;0.20;;;17.80;99.90;;;;;;5032110;28;20387;-76
2021/08/31 10:38:11;;;;;;;0.40;0.25;;;17.60;99.90;;;;;;5030667;28;20414;-75
2021/08/31 10:40:42;;;;;;;0.40;0.20;;;17.60;99.90;;;;;;5032080;28;20392;-77
2021/08/31 10:43:19;;;;;;;0.40;0.20;;;17.70;99.90;;;;;;5014211;28;20403;-76
2021/08/31 10:45:56;;;;;;;0.40;0.20;;;17.80;99.90;;;;;;5031645;28;20434;-76
2021/08/31 10:48:22;;;;;;;0.40;0.20;;;18.10;99.90;;;;;;5031599;28;20387;-77
2021/08/31 10:51:05;;;;;;;0.40;0.20;;;18.30;99.90;;;;;;5031734;28;20398;-76
2021/08/31 10:53:39;;;;;;;0.40;0.20;;;18.40;99.90;;;;;;5032307;28;20402;-75
2021/08/31 10:56:23;;;;;;;0.40;0.20;;;18.30;99.90;;;;;;5032285;28;20387;-76
2021/08/31 10:58:54;;;;;;;0.40;0.20;;;18.00;99.90;;;;;;5031350;28;20411;-76
2021/08/31 11:01:22;;;;;;;0.40;0.20;;;18.20;99.90;;;;;;5032303;28;20383;-74
2021/08/31 11:03:50;;;;;;;0.40;0.20;;;18.00;99.90;;;;;;5031543;28;20390;-75
2021/08/31 11:06:22;;;;;;;0.40;0.20;;;17.90;99.90;;;;;;5032133;28;20379;-74
2021/08/31 11:09:02;;;;;;;0.40;0.28;;;17.60;99.90;;;;;;5031139;28;20419;-76
2021/08/31 11:11:28;;;;;;;0.40;0.20;;;17.70;99.90;;;;;;5032013;28;20383;-76
2021/08/31 11:13:56;;;;;;;0.40;0.20;;;17.80;99.90;;;;;;5031423;28;20399;-74
2021/08/31 11:16:29;;;;;;;0.40;0.20;;;17.80;99.90;;;;;;5031749;28;20478;-76
2021/08/31 11:18:55;;;;;;;0.40;0.20;;;17.70;99.90;;;;;;5031147;28;20498;-76
2021/08/31 11:21:22;;;;;;;0.40;0.20;;;17.70;99.90;;;;;;5032079;28;20390;-76
2021/08/31 11:23:48;;;;;;;0.40;0.30;;;17.90;99.90;;;;;;5031179;28;20467;-77
2021/08/31 11:26:25;;;;;;;0.40;0.20;;;17.80;99.90;;;;;;5031549;28;20474;-77
2021/08/31 11:28:53;;;;;;;0.40;0.20;;;17.60;99.90;;;;;;5030908;28;20868;-77
2021/08/31 11:31:24;;;;;;;0.40;0.22;;;17.70;99.90;;;;;;5031627;28;20386;-77
2021/08/31 11:33:51;;;;;;;0.40;0.20;;;17.90;99.90;;;;;;5030870;28;20928;-77
2021/08/31 11:36:30;;;;;;;0.40;0.20;;;17.90;99.90;;;;;;5031712;28;20379;-76
2021/08/31 11:39:02;;;;;;;0.40;0.20;;;17.90;99.90;;;;;;5029561;28;20411;-76
2021/08/31 11:41:42;;;;;;;0.40;0.20;;;17.80;99.90;;;;;;5031535;28;20395;-77
2021/08/31 11:44:09;;;;;;;0.40;0.20;;;18.00;99.90;;;;;;5031588;28;20394;-76
2021/08/31 11:46:47;;;;;;;0.40;0.30;;;18.10;99.90;;;;;;5031577;28;20408;-76
2021/08/31 11:49:29;;;;;;;0.40;0.30;;;18.10;99.90;;;;;;5031332;28;20380;-76
2021/08/31 11:51:54;;;;;;;0.40;0.20;;;18.30;99.90;;;;;;5030630;28;20375;-76
2021/08/31 11:54:22;;;;;;;0.40;0.20;;;18.30;99.90;;;;;;5031453;28;20379;-76
2021/08/31 11:56:56;;;;;;;0.40;0.20;;;18.30;99.90;;;;;;5030533;28;20383;-77
2021/08/31 11:59:37;;;;;;;0.40;0.20;;;18.40;99.90;;;;;;5031224;28;20391;-75
2021/08/31 12:02:14;;;;;;;0.40;0.20;;;18.40;99.90;;;;;;5030696;28;20383;-76
2021/08/31 12:04:41;;;;;;;0.40;0.20;;;18.40;99.90;;;;;;5031318;28;20395;-75
2021/08/31 12:07:10;;;;;;;0.40;0.20;;;18.40;99.90;;;;;;5029895;28;20863;-74
2021/08/31 12:09:41;;;;;;;0.40;0.30;;;18.20;99.90;;;;;;5027631;28;20431;-76
2021/08/31 12:12:09;;;;;;;0.40;0.20;;;18.20;99.90;;;;;;5030050;28;20855;-76
2021/08/31 12:14:35;;;;;;;0.40;0.20;;;18.30;99.90;;;;;;5028931;28;20486;-76
2021/08/31 12:17:02;;;;;;;0.40;0.28;;;18.50;99.90;;;;;;5026959;28;20498;-76
2021/08/31 12:19:27;;;;;;;0.40;0.20;;;18.50;99.90;;;;;;5028464;28;20398;-76
2021/08/31 12:22:14;;;;;;;0.40;0.20;;;18.50;99.90;;;;;;5028142;28;20419;-76
2021/08/31 12:24:45;;;;;;;0.40;0.20;;;18.30;99.90;;;;;;5028622;28;20481;-77
2021/08/31 12:27:15;;;;;;;0.40;0.20;;;18.40;99.90;;;;;;5028514;28;20418;-76
2021/08/31 12:29:51;;;;;;;0.40;0.20;;;18.30;99.90;;;;;;5028960;28;20399;-76
2021/08/31 12:32:31;;;;;;;0.40;0.20;;;18.30;99.90;;;;;;5027735;28;20529;-75
2021/08/31 12:35:35;;;;;;;0.40;0.20;;;18.30;99.90;;;;;;5025472;28;20777;-75
2021/08/31 12:38:11;;;;;;;0.40;0.20;;;18.30;99.90;;;;;;5028379;28;20504;-75
2021/08/31 12:40:58;;;;;;;0.40;0.30;;;18.30;99.90;;;;;;5027336;28;20853;-75
2021/08/31 12:43:41;;;;;;;0.40;0.30;;;18.20;99.90;;;;;;5027558;28;20396;-76
2021/08/31 12:46:07;;;;;;;0.40;0.30;;;18.20;99.90;;;;;;5028365;28;20409;-75
2021/08/31 12:48:35;;;;;;;0.40;0.20;;;18.60;99.90;;;;;;5028669;28;20388;-77
2021/08/31 12:51:04;;;;;;;0.40;0.30;;;18.50;99.90;;;;;;5026530;28;20751;-76